createdAt,value
2024-03-02T00:00:21.409Z,16.92
2024-03-02T00:05:23.305Z,16.00
2024-03-02T00:10:37.348Z,13.73
2024-03-02T00:15:42.157Z,17.77
2024-03-02T00:20:43.684Z,15.88
2024-03-02T00:25:46.157Z,13.02
2024-03-02T00:30:52.823Z,16.73
2024-03-02T00:35:54.414Z,14.80
2024-03-02T00:40:59.033Z,15.10
2024-03-02T00:46:00.543Z,13.13
2024-03-02T00:51:02.142Z,12.15
2024-03-02T00:56:03.718Z,13.40
2024-03-02T01:01:05.391Z,11.98
2024-03-02T01:06:06.973Z,13.90
2024-03-02T01:11:08.555Z,12.93
2024-03-02T01:16:10.100Z,13.13
2024-03-02T01:21:11.599Z,12.43
2024-03-02T01:26:13.060Z,14.15
2024-03-02T01:31:14.526Z,12.57
2024-03-02T01:36:16.025Z,14.00
2024-03-02T01:41:17.577Z,12.77
2024-03-02T01:46:19.040Z,17.00
2024-03-02T01:51:20.549Z,13.27
2024-03-02T01:56:22.101Z,17.75
2024-03-02T02:01:24.609Z,14.15
2024-03-02T02:06:26.196Z,16.52
2024-03-02T02:11:27.733Z,15.15
2024-03-02T02:16:29.255Z,14.35
2024-03-02T02:21:30.775Z,13.27
2024-03-02T02:26:32.251Z,13.07
2024-03-02T02:31:39.912Z,11.88
2024-03-02T02:36:41.482Z,12.32
2024-03-02T02:41:43.076Z,11.48
2024-03-02T02:46:44.546Z,11.40
2024-03-02T02:51:46.061Z,12.73
2024-03-02T02:56:47.564Z,12.23
2024-03-02T03:01:49.103Z,13.38
2024-03-02T03:06:50.757Z,14.10
2024-03-02T03:11:52.373Z,13.15
2024-03-02T03:16:53.913Z,12.57
2024-03-02T03:21:55.425Z,10.95
2024-03-02T03:26:56.912Z,15.50
2024-03-02T03:31:58.390Z,11.88
2024-03-02T03:36:59.922Z,13.85
2024-03-02T03:42:02.241Z,12.98
2024-03-02T03:47:03.732Z,12.30
2024-03-02T03:52:05.502Z,13.02
2024-03-02T03:57:07.037Z,17.35
2024-03-02T04:02:08.508Z,13.00
2024-03-02T04:07:10.014Z,13.52
2024-03-02T04:12:11.515Z,14.35
2024-03-02T04:17:13.008Z,16.50
2024-03-02T04:22:18.812Z,16.25
2024-03-02T04:27:26.468Z,16.52
2024-03-02T04:32:28.367Z,14.98
2024-03-02T04:37:29.906Z,54.20
2024-03-02T04:42:31.482Z,15.60
2024-03-02T04:47:32.951Z,16.30
2024-03-02T04:52:34.433Z,12.45
2024-03-02T04:57:35.963Z,14.55
2024-03-02T05:02:37.553Z,15.63
2024-03-02T05:07:39.039Z,14.20
2024-03-02T05:12:40.578Z,14.02
2024-03-02T05:17:42.832Z,13.73
2024-03-02T05:22:44.451Z,14.07
2024-03-02T05:27:46.041Z,14.68
2024-03-02T05:32:47.548Z,14.32
2024-03-02T05:37:49.021Z,13.73
2024-03-02T05:42:50.580Z,14.85
2024-03-02T05:47:52.111Z,13.82
2024-03-02T05:52:53.630Z,14.05
2024-03-02T05:57:55.219Z,15.70
2024-03-02T06:02:56.755Z,17.85
2024-03-02T06:07:58.245Z,14.63
2024-03-02T06:12:59.856Z,15.27
2024-03-02T06:18:01.424Z,13.00
2024-03-02T06:23:02.933Z,13.32
2024-03-02T06:28:04.612Z,15.05
2024-03-02T06:33:06.111Z,13.25
2024-03-02T06:38:07.591Z,17.85
2024-03-02T06:43:09.166Z,14.60
2024-03-02T06:48:10.842Z,13.48
2024-03-02T06:53:12.337Z,15.43
2024-03-02T06:58:14.426Z,14.88
2024-03-02T07:03:15.896Z,19.23
2024-03-02T07:08:17.402Z,13.38
2024-03-02T07:13:18.890Z,14.27
2024-03-02T07:18:20.405Z,15.68
2024-03-02T07:23:21.887Z,17.67
2024-03-02T07:28:24.019Z,16.05
2024-03-02T07:33:25.501Z,16.92
2024-03-02T07:38:27.175Z,17.27
2024-03-02T07:43:29.025Z,18.52
2024-03-02T07:48:30.764Z,17.25
2024-03-02T07:53:32.502Z,18.75
2024-03-02T07:58:34.152Z,17.55
2024-03-02T08:03:35.795Z,16.95
2024-03-02T08:08:37.358Z,18.08
2024-03-02T08:13:39.219Z,21.40
2024-03-02T08:18:40.808Z,16.90
2024-03-02T08:23:44.715Z,15.95
2024-03-02T08:28:46.379Z,17.50
2024-03-02T08:33:47.950Z,15.20
2024-03-02T08:38:50.207Z,17.73
2024-03-02T08:43:51.799Z,16.83
2024-03-02T08:48:53.425Z,14.93
2024-03-02T08:53:54.994Z,13.15
2024-03-02T08:58:56.452Z,13.82
2024-03-02T09:03:58.055Z,14.15
2024-03-02T09:08:59.664Z,13.93
2024-03-02T09:14:01.139Z,13.00
2024-03-02T09:19:02.791Z,12.27
2024-03-02T09:24:04.788Z,12.57
2024-03-02T09:29:06.301Z,11.20
2024-03-02T09:34:07.946Z,12.32
2024-03-02T09:39:09.693Z,11.52
2024-03-02T09:44:11.726Z,13.43
2024-03-02T09:49:13.693Z,11.60
2024-03-02T09:54:22.217Z,10.93
2024-03-02T09:59:24.926Z,11.73
2024-03-02T10:04:30.282Z,9.13
2024-03-02T10:09:31.968Z,9.27
2024-03-02T10:14:33.507Z,9.77
2024-03-02T10:19:39.175Z,11.32
2024-03-02T10:24:40.795Z,9.75
2024-03-02T10:29:42.518Z,10.45
2024-03-02T10:34:45.408Z,10.50
2024-03-02T10:39:47.444Z,8.10
2024-03-02T10:44:50.110Z,9.00
2024-03-02T10:49:52.289Z,7.22
2024-03-02T10:54:53.922Z,7.35
2024-03-02T10:59:57.882Z,6.95
2024-03-02T11:05:01.295Z,6.25
2024-03-02T11:10:04.719Z,6.43
2024-03-02T11:15:11.070Z,7.13
2024-03-02T11:20:12.996Z,7.22
2024-03-02T11:25:27.426Z,6.72
2024-03-02T11:30:35.671Z,9.15
2024-03-02T11:35:38.323Z,7.90
2024-03-02T11:40:42.916Z,9.30
2024-03-02T11:45:45.262Z,9.20
2024-03-02T11:50:51.613Z,10.68
2024-03-02T11:55:53.772Z,8.38
2024-03-02T12:00:55.770Z,11.43
2024-03-02T12:05:57.394Z,8.50
2024-03-02T12:11:00.224Z,9.10
2024-03-02T12:16:01.903Z,8.55
2024-03-02T12:21:03.658Z,7.68
2024-03-02T12:26:05.478Z,8.38
2024-03-02T12:31:07.099Z,10.70
2024-03-02T12:36:11.828Z,7.20
2024-03-02T12:41:16.156Z,8.07
2024-03-02T12:46:17.903Z,7.78
2024-03-02T12:51:19.422Z,13.68
2024-03-02T12:56:20.993Z,9.20
2024-03-02T13:01:22.734Z,5.82
2024-03-02T13:06:24.911Z,6.70
2024-03-02T13:11:26.652Z,6.28
2024-03-02T13:16:32.858Z,6.47
2024-03-02T13:21:38.378Z,8.30
2024-03-02T13:26:39.855Z,7.50
2024-03-02T13:31:41.308Z,8.00
2024-03-02T13:36:42.823Z,5.90
2024-03-02T13:41:44.875Z,6.05
2024-03-02T13:46:47.046Z,9.90
2024-03-02T13:51:48.561Z,9.45
2024-03-02T13:56:50.127Z,7.25
2024-03-02T14:01:51.760Z,8.45
2024-03-02T14:06:53.282Z,6.60
2024-03-02T14:11:55.168Z,9.43
2024-03-02T14:16:56.790Z,7.47
2024-03-02T14:21:58.337Z,12.88
2024-03-02T14:27:06.136Z,10.60
2024-03-02T14:32:12.307Z,9.57
2024-03-02T14:37:14.644Z,12.38
2024-03-02T14:42:16.109Z,10.45
2024-03-02T14:47:17.841Z,11.48
2024-03-02T14:52:19.293Z,10.07
2024-03-02T14:57:20.766Z,14.32
2024-03-02T15:02:22.295Z,9.68
2024-03-02T15:07:23.808Z,9.18
2024-03-02T15:12:25.360Z,7.82
2024-03-02T15:17:27.001Z,7.47
2024-03-02T15:22:31.707Z,8.48
2024-03-02T15:27:33.445Z,9.18
2024-03-02T15:32:37.807Z,6.75
2024-03-02T15:37:39.296Z,9.43
2024-03-02T15:42:40.890Z,8.48
2024-03-02T15:47:43.332Z,8.90
2024-03-02T15:52:44.988Z,9.63
2024-03-02T15:57:51.228Z,8.23
2024-03-02T16:02:53.869Z,10.90
2024-03-02T16:07:55.677Z,8.32
2024-03-02T16:12:59.861Z,8.07
2024-03-02T16:18:01.925Z,8.10
2024-03-02T16:23:03.632Z,10.40
2024-03-02T16:28:09.915Z,13.55
2024-03-02T16:33:14.610Z,9.90
2024-03-02T16:38:16.222Z,9.20
2024-03-02T16:43:17.852Z,10.63
2024-03-02T16:48:19.730Z,7.53
2024-03-02T16:53:22.264Z,7.88
2024-03-02T16:58:24.101Z,6.88
2024-03-02T17:03:25.829Z,8.73
2024-03-02T17:08:27.316Z,8.15
2024-03-02T17:13:28.879Z,7.80
2024-03-02T17:18:30.434Z,7.32
2024-03-02T17:23:32.009Z,7.57
2024-03-02T17:28:34.109Z,6.88
2024-03-02T17:33:35.661Z,9.60
2024-03-02T17:38:37.133Z,138.68
2024-03-02T17:43:42.251Z,108.80
2024-03-02T17:48:43.854Z,156.73
2024-03-02T17:53:45.390Z,95.50
2024-03-02T17:58:47.028Z,20.73
2024-03-02T18:03:48.589Z,33.08
2024-03-02T18:08:50.223Z,20.10
2024-03-02T18:13:51.709Z,10.60
2024-03-02T18:18:53.322Z,12.88
2024-03-02T18:23:54.900Z,21.65
2024-03-02T18:28:56.431Z,13.45
2024-03-02T18:33:58.110Z,11.55
2024-03-02T18:38:59.705Z,10.07
2024-03-02T18:44:01.162Z,11.80
2024-03-02T18:49:02.821Z,10.63
2024-03-02T18:54:04.352Z,12.57
2024-03-02T18:59:05.867Z,12.73
2024-03-02T19:04:07.488Z,10.05
2024-03-02T19:09:09.051Z,9.77
2024-03-02T19:14:10.618Z,9.23
2024-03-02T19:19:12.198Z,11.32
2024-03-02T19:24:13.798Z,11.02
2024-03-02T19:29:15.300Z,11.55
2024-03-02T19:34:17.293Z,9.45
2024-03-02T19:39:19.117Z,13.13
2024-03-02T19:44:20.559Z,9.95
2024-03-02T19:49:22.163Z,11.38
2024-03-02T19:54:23.684Z,10.32
2024-03-02T19:59:25.237Z,12.55
2024-03-02T20:04:26.737Z,12.73
2024-03-02T20:09:28.221Z,12.98
2024-03-02T20:14:29.727Z,11.05
2024-03-02T20:19:31.171Z,10.88
2024-03-02T20:24:32.648Z,9.95
2024-03-02T20:29:34.228Z,10.90
2024-03-02T20:34:35.660Z,10.07
2024-03-02T20:39:37.176Z,9.95
2024-03-02T20:44:38.747Z,27.50
2024-03-02T20:49:40.545Z,12.93
2024-03-02T20:54:42.125Z,22.38
2024-03-02T20:59:43.808Z,115.20
2024-03-02T21:04:48.111Z,38.30
2024-03-02T21:09:49.846Z,13.48
2024-03-02T21:14:51.339Z,9.65
2024-03-02T21:19:53.200Z,11.20
2024-03-02T21:24:54.901Z,10.20
2024-03-02T21:29:56.570Z,12.82
2024-03-02T21:34:58.369Z,12.07
2024-03-02T21:39:59.840Z,10.73
2024-03-02T21:45:01.325Z,11.98
2024-03-02T21:50:03.248Z,11.48
2024-03-02T21:55:04.922Z,11.48
2024-03-02T22:00:07.021Z,11.35
2024-03-02T22:05:08.568Z,11.85
2024-03-02T22:10:10.107Z,10.65
2024-03-02T22:15:11.601Z,41.67
2024-03-02T22:20:13.229Z,46.33
2024-03-02T22:25:14.792Z,25.73
2024-03-02T22:30:16.438Z,42.05
2024-03-02T22:35:18.536Z,14.98
2024-03-02T22:40:21.033Z,16.02
2024-03-02T22:45:22.527Z,38.17
2024-03-02T22:50:24.120Z,16.30
2024-03-02T22:55:25.646Z,24.83
2024-03-02T23:00:27.149Z,28.70
2024-03-02T23:05:29.416Z,76.65
2024-03-02T23:10:30.905Z,55.13
2024-03-02T23:15:32.384Z,32.70
2024-03-02T23:20:33.906Z,26.95
2024-03-02T23:25:35.762Z,26.90
2024-03-02T23:30:39.284Z,39.13
2024-03-02T23:35:40.814Z,24.35
2024-03-02T23:40:42.275Z,22.10
2024-03-02T23:45:43.756Z,15.23
2024-03-02T23:50:45.462Z,16.92
2024-03-02T23:55:52.267Z,18.13
